createdAt,value
2019-02-04T00:00:10.927Z,42
2019-02-04T00:00:21.019Z,43
2019-02-04T00:00:41.358Z,41
2019-02-04T00:01:00.288Z,42
2019-02-04T00:01:11.165Z,40
2019-02-04T00:01:21.179Z,39
2019-02-04T00:01:31.251Z,40
2019-02-04T00:01:40.439Z,43
2019-02-04T00:01:51.255Z,41
2019-02-04T00:02:00.518Z,40
2019-02-04T00:02:10.502Z,42
2019-02-04T00:02:20.485Z,41
2019-02-04T00:02:41.453Z,42
2019-02-04T00:03:00.690Z,43
2019-02-04T00:03:11.551Z,41
2019-02-04T00:03:21.557Z,39
2019-02-04T00:03:32.530Z,41
2019-02-04T00:03:40.786Z,42
2019-02-04T00:03:51.679Z,43
2019-02-04T00:04:11.752Z,42
2019-02-04T00:04:21.740Z,44
2019-02-04T00:04:31.801Z,46
2019-02-04T00:04:42.979Z,44
2019-02-04T00:04:51.094Z,45
2019-02-04T00:05:01.913Z,46
2019-02-04T00:05:11.078Z,47
2019-02-04T00:05:21.104Z,46
2019-02-04T00:06:02.314Z,44
2019-02-04T00:06:12.135Z,47
2019-02-04T00:06:22.115Z,46
2019-02-04T00:06:31.327Z,45
2019-02-04T00:06:42.466Z,46
2019-02-04T00:07:01.457Z,45
2019-02-04T00:07:13.548Z,44
2019-02-04T00:07:25.381Z,43
2019-02-04T00:07:42.399Z,41
2019-02-04T00:07:52.392Z,43
2019-02-04T00:08:01.618Z,44
2019-02-04T00:08:11.668Z,42
2019-02-04T00:08:22.569Z,39
2019-02-04T00:08:33.462Z,41
2019-02-04T00:08:42.645Z,40
2019-02-04T00:08:52.603Z,45
2019-02-04T00:09:02.756Z,44
2019-02-04T00:09:11.882Z,43
2019-02-04T00:09:21.826Z,42
2019-02-04T00:09:42.709Z,40
2019-02-04T00:10:12.891Z,43
2019-02-04T00:10:22.012Z,42
2019-02-04T00:10:33.333Z,43
2019-02-04T00:10:42.155Z,44
2019-02-04T00:11:33.127Z,43
2019-02-04T00:11:42.318Z,44
2019-02-04T00:11:53.189Z,46
2019-02-04T00:12:03.256Z,41
2019-02-04T00:12:12.926Z,40
2019-02-04T00:12:23.238Z,45
2019-02-04T00:12:34.190Z,44
2019-02-04T00:12:44.210Z,43
2019-02-04T00:13:03.510Z,42
2019-02-04T00:13:23.450Z,45
2019-02-04T00:14:03.597Z,44
2019-02-04T00:14:12.788Z,46
2019-02-04T00:14:22.771Z,44
2019-02-04T00:14:33.672Z,45
2019-02-04T00:14:44.520Z,41
2019-02-04T00:14:52.854Z,40
2019-02-04T00:15:04.736Z,42
2019-02-04T00:15:13.833Z,47
2019-02-04T00:15:23.800Z,44
2019-02-04T00:15:33.050Z,45
2019-02-04T00:15:44.010Z,46
2019-02-04T00:15:53.893Z,44
2019-02-04T00:16:13.777Z,45
2019-02-04T00:16:23.148Z,46
2019-02-04T00:16:41.674Z,44
2019-02-04T00:16:53.257Z,43
2019-02-04T00:17:04.158Z,45
2019-02-04T00:17:14.204Z,43
2019-02-04T00:17:24.545Z,45
2019-02-04T00:17:33.418Z,44
2019-02-04T00:17:43.445Z,45
2019-02-04T00:17:54.286Z,44
2019-02-04T00:18:23.542Z,46
2019-02-04T00:18:33.623Z,45
2019-02-04T00:18:53.681Z,46
2019-02-04T00:19:04.523Z,47
2019-02-04T00:19:14.585Z,45
2019-02-04T00:19:23.767Z,43
2019-02-04T00:19:34.663Z,40
2019-02-04T00:19:45.964Z,39
2019-02-04T00:20:05.534Z,46
2019-02-04T00:20:13.919Z,45
2019-02-04T00:20:24.805Z,49
2019-02-04T00:20:33.925Z,48
2019-02-04T00:20:44.882Z,42
2019-02-04T00:21:04.910Z,40
2019-02-04T00:21:15.007Z,41
2019-02-04T00:21:24.206Z,42
2019-02-04T00:21:35.022Z,46
2019-02-04T00:21:44.282Z,47
2019-02-04T00:21:55.133Z,45
2019-02-04T00:22:24.353Z,47
2019-02-04T00:22:55.350Z,46
2019-02-04T00:23:06.482Z,45
2019-02-04T00:23:15.151Z,47
2019-02-04T00:23:25.714Z,46
2019-02-04T00:23:36.040Z,44
2019-02-04T00:23:45.498Z,42
2019-02-04T00:23:56.013Z,40
2019-02-04T00:24:04.646Z,41
2019-02-04T00:24:16.865Z,45
2019-02-04T00:24:24.737Z,44
2019-02-04T00:24:34.807Z,45
2019-02-04T00:24:54.867Z,44
2019-02-04T00:25:05.724Z,42
2019-02-04T00:25:16.645Z,41
2019-02-04T00:25:35.779Z,42
2019-02-04T00:25:44.992Z,43
2019-02-04T00:25:55.927Z,44
2019-02-04T00:26:05.862Z,46
2019-02-04T00:26:15.939Z,45
2019-02-04T00:26:36.313Z,43
2019-02-04T00:27:06.120Z,42
2019-02-04T00:27:26.170Z,43
2019-02-04T00:27:35.287Z,41
2019-02-04T00:27:45.373Z,42
2019-02-04T00:27:55.410Z,43
2019-02-04T00:28:05.395Z,44
2019-02-04T00:28:15.470Z,43
2019-02-04T00:28:25.483Z,41
2019-02-04T00:28:35.498Z,42
2019-02-04T00:28:55.584Z,41
2019-02-04T00:29:26.535Z,40
2019-02-04T00:29:36.550Z,41
2019-02-04T00:29:46.538Z,44
2019-02-04T00:29:56.652Z,42
2019-02-04T00:30:05.743Z,41
2019-02-04T00:30:15.825Z,40
2019-02-04T00:30:56.821Z,43
2019-02-04T00:31:07.092Z,41
2019-02-04T00:31:46.929Z,42
2019-02-04T00:32:17.426Z,44
2019-02-04T00:32:37.125Z,42
2019-02-04T00:32:48.959Z,40
2019-02-04T00:33:08.068Z,43
2019-02-04T00:33:17.273Z,40
2019-02-04T00:33:26.454Z,39
2019-02-04T00:33:37.262Z,40
2019-02-04T00:33:46.478Z,41
2019-02-04T00:33:57.376Z,42
2019-02-04T00:35:02.396Z,39
2019-02-04T00:35:12.314Z,40
2019-02-04T00:35:31.521Z,39
2019-02-04T00:35:40.639Z,40
2019-02-04T00:35:50.714Z,39
2019-02-04T00:36:01.614Z,41
2019-02-04T00:36:12.853Z,43
2019-02-04T00:36:22.524Z,44
2019-02-04T00:36:40.820Z,45
2019-02-04T00:36:52.013Z,41
2019-02-04T00:37:11.772Z,40
2019-02-04T00:37:24.467Z,42
2019-02-04T00:37:32.703Z,40
2019-02-04T00:37:42.034Z,39
2019-02-04T00:37:52.914Z,43
2019-02-04T00:38:03.442Z,44
2019-02-04T00:38:11.985Z,43
2019-02-04T00:38:22.977Z,44
2019-02-04T00:38:31.208Z,43
2019-02-04T00:38:52.160Z,44
2019-02-04T00:39:03.537Z,45
2019-02-04T00:39:13.430Z,43
2019-02-04T00:39:22.214Z,42
2019-02-04T00:39:31.394Z,43
2019-02-04T00:39:52.312Z,41
2019-02-04T00:40:02.321Z,39
2019-02-04T00:40:13.854Z,41
2019-02-04T00:40:22.691Z,39
2019-02-04T00:40:31.592Z,40
2019-02-04T00:40:42.437Z,39
2019-02-04T00:40:51.672Z,42
2019-02-04T00:41:01.716Z,41
2019-02-04T00:41:21.825Z,40
2019-02-04T00:41:31.776Z,41
2019-02-04T00:42:11.874Z,42
2019-02-04T00:42:22.848Z,41
2019-02-04T00:42:34.865Z,44
2019-02-04T00:42:42.920Z,41
2019-02-04T00:42:53.766Z,39
2019-02-04T00:43:12.936Z,44
2019-02-04T00:43:22.980Z,43
2019-02-04T00:43:52.218Z,42
2019-02-04T00:44:03.986Z,40
2019-02-04T00:44:13.145Z,41
2019-02-04T00:44:22.306Z,40
2019-02-04T00:44:33.187Z,41
2019-02-04T00:44:53.550Z,43
2019-02-04T00:45:03.361Z,41
2019-02-04T00:45:13.313Z,40
2019-02-04T00:45:22.616Z,43
2019-02-04T00:45:32.529Z,42
2019-02-04T00:45:44.216Z,40
2019-02-04T00:45:53.453Z,43
2019-02-04T00:46:02.643Z,42
2019-02-04T00:46:23.549Z,41
2019-02-04T00:46:33.581Z,42
2019-02-04T00:46:53.124Z,39
2019-02-04T00:46:55.735Z,43
2019-02-04T00:47:03.676Z,41
2019-02-04T00:47:13.858Z,42
2019-02-04T00:47:22.866Z,41
2019-02-04T00:47:33.787Z,40
2019-02-04T00:47:43.751Z,41
2019-02-04T00:47:53.812Z,40
2019-02-04T00:48:03.004Z,38
2019-02-04T00:48:13.860Z,43
2019-02-04T00:48:24.158Z,40
2019-02-04T00:48:35.627Z,38
2019-02-04T00:48:46.487Z,39
2019-02-04T00:48:53.143Z,40
2019-02-04T00:49:04.050Z,41
2019-02-04T00:49:23.241Z,40
2019-02-04T00:49:54.216Z,39
2019-02-04T00:50:14.203Z,38
2019-02-04T00:50:34.373Z,42
2019-02-04T00:50:43.456Z,43
2019-02-04T00:50:56.084Z,40
2019-02-04T00:51:24.483Z,41
2019-02-04T00:51:44.520Z,42
2019-02-04T00:52:05.452Z,43
2019-02-04T00:52:14.712Z,45
2019-02-04T00:52:34.698Z,47
2019-02-04T00:52:43.844Z,46
2019-02-04T00:52:55.913Z,43
2019-02-04T00:53:04.827Z,44
2019-02-04T00:53:24.852Z,42
2019-02-04T00:53:34.938Z,39
2019-02-04T00:54:05.329Z,37
2019-02-04T00:54:15.806Z,41
2019-02-04T00:54:25.040Z,43
2019-02-04T00:54:35.059Z,41
2019-02-04T00:54:45.090Z,39
2019-02-04T00:54:54.294Z,37
2019-02-04T00:55:15.535Z,36
2019-02-04T00:55:24.432Z,38
2019-02-04T00:55:35.331Z,39
2019-02-04T00:55:45.297Z,37
2019-02-04T00:55:56.246Z,38
2019-02-04T00:56:05.389Z,42
2019-02-04T00:56:15.361Z,41
2019-02-04T00:56:25.646Z,40
2019-02-04T00:56:44.623Z,43
2019-02-04T00:56:56.547Z,41
2019-02-04T00:57:05.582Z,39
2019-02-04T00:57:14.732Z,38
2019-02-04T00:57:25.679Z,36
2019-02-04T00:57:34.834Z,37
2019-02-04T00:57:45.684Z,39
2019-02-04T00:57:55.747Z,40
2019-02-04T00:58:05.808Z,41
2019-02-04T00:58:15.088Z,40
2019-02-04T00:58:25.857Z,41
2019-02-04T00:58:35.899Z,39
2019-02-04T00:58:55.978Z,40
2019-02-04T00:59:15.130Z,39
2019-02-04T00:59:36.098Z,40
2019-02-04T01:00:08.171Z,39
2019-02-04T01:00:28.542Z,40
2019-02-04T01:00:38.313Z,41
2019-02-04T01:00:48.281Z,39
2019-02-04T01:00:59.633Z,37
2019-02-04T01:01:07.550Z,38
2019-02-04T01:01:28.489Z,40
2019-02-04T01:01:38.521Z,39
2019-02-04T01:01:48.460Z,40
2019-02-04T01:01:58.566Z,41
2019-02-04T01:02:08.845Z,40
2019-02-04T01:02:18.605Z,38
2019-02-04T01:02:28.684Z,39
2019-02-04T01:02:40.432Z,37
2019-02-04T01:02:49.555Z,38
2019-02-04T01:03:01.124Z,43
2019-02-04T01:03:07.918Z,41
2019-02-04T01:03:17.894Z,40
2019-02-04T01:03:29.064Z,39
2019-02-04T01:03:39.715Z,40
2019-02-04T01:03:47.979Z,41
2019-02-04T01:03:58.936Z,40
2019-02-04T01:04:09.212Z,39
2019-02-04T01:04:29.012Z,38
2019-02-04T01:04:39.033Z,42
2019-02-04T01:04:49.293Z,41
2019-02-04T01:04:58.255Z,43
2019-02-04T01:05:20.002Z,41
2019-02-04T01:05:29.232Z,40
2019-02-04T01:05:38.351Z,43
2019-02-04T01:05:49.219Z,42
2019-02-04T01:05:58.447Z,41
2019-02-04T01:06:38.564Z,43
2019-02-04T01:06:48.544Z,41
2019-02-04T01:06:59.532Z,38
2019-02-04T01:07:09.548Z,39
2019-02-04T01:07:29.591Z,42
2019-02-04T01:08:01.317Z,44
2019-02-04T01:08:19.697Z,42
2019-02-04T01:08:30.665Z,40
2019-02-04T01:08:40.695Z,41
2019-02-04T01:09:01.293Z,40
2019-02-04T01:09:19.944Z,38
2019-02-04T01:09:29.923Z,41
2019-02-04T01:09:39.991Z,39
2019-02-04T01:10:09.193Z,38
2019-02-04T01:10:19.224Z,37
2019-02-04T01:10:41.021Z,40
2019-02-04T01:11:01.086Z,38
2019-02-04T01:11:30.299Z,39
2019-02-04T01:11:50.331Z,40
2019-02-04T01:12:00.374Z,37
2019-02-04T01:12:10.419Z,38
2019-02-04T01:12:30.605Z,37
2019-02-04T01:12:40.535Z,38
2019-02-04T01:12:49.653Z,37
2019-02-04T01:13:10.571Z,38
2019-02-04T01:13:22.258Z,40
2019-02-04T01:13:31.582Z,39
2019-02-04T01:13:40.682Z,38
2019-02-04T01:13:50.704Z,39
2019-02-04T01:14:00.780Z,40
2019-02-04T01:14:20.799Z,38
2019-02-04T01:14:30.876Z,37
2019-02-04T01:14:50.953Z,39
2019-02-04T01:15:11.888Z,38
2019-02-04T01:15:21.011Z,39
2019-02-04T01:15:41.108Z,40
2019-02-04T01:15:51.489Z,39
2019-02-04T01:16:00.319Z,37
2019-02-04T01:16:11.193Z,38
2019-02-04T01:16:20.318Z,36
2019-02-04T01:16:31.299Z,37
2019-02-04T01:16:41.285Z,39
2019-02-04T01:17:10.531Z,38
2019-02-04T01:17:20.540Z,39
2019-02-04T01:17:33.869Z,40
2019-02-04T01:17:41.517Z,41
2019-02-04T01:17:51.542Z,42
2019-02-04T01:18:32.439Z,40
2019-02-04T01:18:40.823Z,38
2019-02-04T01:19:12.060Z,41
2019-02-04T01:19:30.980Z,38
2019-02-04T01:19:41.014Z,37
2019-02-04T01:19:51.003Z,40
2019-02-04T01:20:01.078Z,39
2019-02-04T01:20:13.912Z,38
2019-02-04T01:20:22.220Z,39
2019-02-04T01:20:31.235Z,38
2019-02-04T01:20:52.074Z,36
2019-02-04T01:21:03.017Z,37
2019-02-04T01:21:12.174Z,39
2019-02-04T01:21:21.300Z,38
2019-02-04T01:21:31.352Z,37
2019-02-04T01:21:52.276Z,39
2019-02-04T01:22:02.316Z,38
2019-02-04T01:22:11.503Z,40
2019-02-04T01:22:22.352Z,38
2019-02-04T01:22:32.455Z,39
2019-02-04T01:22:42.737Z,42
2019-02-04T01:22:52.486Z,45
2019-02-04T01:23:01.635Z,44
2019-02-04T01:23:12.537Z,40
2019-02-04T01:23:52.942Z,39
2019-02-04T01:24:01.865Z,37
2019-02-04T01:24:13.037Z,35
2019-02-04T01:24:32.854Z,37
2019-02-04T01:24:41.978Z,38
2019-02-04T01:25:03.205Z,39
2019-02-04T01:25:12.992Z,40
2019-02-04T01:25:22.998Z,39
2019-02-04T01:25:43.024Z,40
2019-02-04T01:25:52.162Z,39
2019-02-04T01:26:03.113Z,38
2019-02-04T01:26:12.283Z,36
2019-02-04T01:26:22.260Z,37
2019-02-04T01:26:32.331Z,36
2019-02-04T01:26:43.226Z,39
2019-02-04T01:26:53.235Z,38
2019-02-04T01:27:13.338Z,36
2019-02-04T01:27:22.453Z,37
2019-02-04T01:27:34.213Z,39
2019-02-04T01:27:43.431Z,38
2019-02-04T01:28:03.478Z,42
2019-02-04T01:28:13.517Z,40
2019-02-04T01:28:25.124Z,38
2019-02-04T01:28:42.728Z,39
2019-02-04T01:28:53.630Z,38
2019-02-04T01:29:04.538Z,39
2019-02-04T01:29:13.680Z,40
2019-02-04T01:29:32.888Z,39
2019-02-04T01:29:52.908Z,37
2019-02-04T01:30:03.848Z,39
2019-02-04T01:30:23.888Z,35
2019-02-04T01:30:33.970Z,38
2019-02-04T01:30:53.944Z,39
2019-02-04T01:31:04.894Z,37
2019-02-04T01:31:14.965Z,39
2019-02-04T01:31:24.966Z,40
2019-02-04T01:31:34.155Z,38
2019-02-04T01:31:43.335Z,37
2019-02-04T01:31:54.457Z,38
2019-02-04T01:32:04.284Z,37
2019-02-04T01:32:14.310Z,36
2019-02-04T01:32:24.277Z,39
2019-02-04T01:32:33.495Z,40
2019-02-04T01:32:43.519Z,39
2019-02-04T01:32:54.372Z,36
2019-02-04T01:33:14.525Z,39
2019-02-04T01:33:23.609Z,40
2019-02-04T01:33:35.378Z,38
2019-02-04T01:33:44.569Z,41
2019-02-04T01:33:54.609Z,42
2019-02-04T01:34:04.679Z,41
2019-02-04T01:34:23.813Z,40
2019-02-04T01:34:33.873Z,39
2019-02-04T01:35:05.104Z,41
2019-02-04T01:35:24.874Z,39
2019-02-04T01:35:35.320Z,40
2019-02-04T01:35:44.102Z,42
2019-02-04T01:35:54.952Z,40
2019-02-04T01:36:05.026Z,41
2019-02-04T01:36:15.298Z,40
2019-02-04T01:36:25.387Z,41
2019-02-04T01:36:35.151Z,42
2019-02-04T01:36:44.271Z,41
2019-02-04T01:37:05.193Z,39
2019-02-04T01:37:15.239Z,38
2019-02-04T01:37:24.355Z,39
2019-02-04T01:37:34.432Z,40
2019-02-04T01:37:45.313Z,37
2019-02-04T01:38:04.521Z,38
2019-02-04T01:38:15.400Z,37
2019-02-04T01:38:26.297Z,39
2019-02-04T01:39:05.599Z,37
2019-02-04T01:39:25.602Z,38
2019-02-04T01:39:54.809Z,40
2019-02-04T01:40:15.777Z,36
2019-02-04T01:40:35.855Z,42
2019-02-04T01:40:46.796Z,40
2019-02-04T01:40:55.857Z,38
2019-02-04T01:41:05.103Z,40
2019-02-04T01:41:15.112Z,38
2019-02-04T01:41:45.226Z,41
2019-02-04T01:41:56.171Z,37
2019-02-04T01:42:06.459Z,39
2019-02-04T01:42:16.187Z,37
2019-02-04T01:42:26.184Z,39
2019-02-04T01:42:47.143Z,41
2019-02-04T01:42:56.271Z,40
2019-02-04T01:43:55.595Z,39
2019-02-04T01:44:26.847Z,42
2019-02-04T01:44:36.604Z,40
2019-02-04T01:45:06.697Z,38
2019-02-04T01:45:16.740Z,41
2019-02-04T01:45:35.926Z,40
2019-02-04T01:45:46.846Z,38
2019-02-04T01:46:16.063Z,39
2019-02-04T01:46:28.675Z,41
2019-02-04T01:46:37.807Z,39
2019-02-04T01:46:46.167Z,38
2019-02-04T01:46:57.021Z,36
2019-02-04T01:47:14.290Z,39
2019-02-04T01:47:17.492Z,41
2019-02-04T01:47:26.234Z,39
2019-02-04T01:47:47.466Z,37
2019-02-04T01:47:57.193Z,38
2019-02-04T01:48:07.266Z,39
2019-02-04T01:48:17.299Z,38
2019-02-04T01:48:48.315Z,39
2019-02-04T01:49:06.638Z,38
2019-02-04T01:49:17.505Z,39
2019-02-04T01:49:46.862Z,38
2019-02-04T01:50:26.822Z,39
2019-02-04T01:50:36.904Z,40
2019-02-04T01:50:48.321Z,42
2019-02-04T01:50:58.404Z,40
2019-02-04T01:51:06.982Z,41
2019-02-04T01:51:17.044Z,40
2019-02-04T01:51:48.332Z,41
2019-02-04T01:51:58.055Z,43
2019-02-04T01:52:08.025Z,41
2019-02-04T01:52:18.109Z,38
2019-02-04T01:52:47.364Z,39
2019-02-04T01:52:58.245Z,41
2019-02-04T01:53:17.503Z,39
2019-02-04T01:53:27.460Z,38
2019-02-04T01:53:38.526Z,39
2019-02-04T01:53:48.415Z,40
2019-02-04T01:53:57.563Z,39
2019-02-04T01:54:09.287Z,38
2019-02-04T01:54:18.530Z,36
2019-02-04T01:54:28.507Z,37
2019-02-04T01:54:38.507Z,36
2019-02-04T01:54:58.594Z,35
2019-02-04T01:55:08.587Z,41
2019-02-04T01:55:17.826Z,40
2019-02-04T01:55:29.547Z,39
2019-02-04T01:55:58.943Z,40
2019-02-04T01:56:08.792Z,39
2019-02-04T01:56:18.836Z,38
2019-02-04T01:56:28.878Z,36
2019-02-04T01:56:48.942Z,39
2019-02-04T01:56:58.105Z,38
2019-02-04T01:57:09.836Z,37
2019-02-04T01:57:28.227Z,36
2019-02-04T01:57:50.059Z,37
2019-02-04T01:57:59.228Z,38
2019-02-04T01:58:09.427Z,40
2019-02-04T01:58:29.811Z,37
2019-02-04T01:58:39.834Z,36
2019-02-04T01:58:49.328Z,39
2019-02-04T01:59:09.777Z,38
2019-02-04T01:59:19.739Z,39
2019-02-04T01:59:29.413Z,38
2019-02-04T01:59:39.381Z,39
2019-02-04T01:59:49.475Z,40
2019-02-04T01:59:58.660Z,38
2019-02-04T02:00:18.693Z,37
2019-02-04T02:00:49.615Z,40
2019-02-04T02:01:09.738Z,39
2019-02-04T02:01:41.652Z,37
2019-02-04T02:01:49.852Z,40
2019-02-04T02:01:59.058Z,39
2019-02-04T02:02:09.927Z,36
2019-02-04T02:02:19.031Z,40
2019-02-04T02:02:39.167Z,39
2019-02-04T02:03:10.272Z,37
2019-02-04T02:03:21.045Z,39
2019-02-04T02:03:30.190Z,38
2019-02-04T02:03:40.203Z,39
2019-02-04T02:03:50.218Z,41
2019-02-04T02:04:00.235Z,40
2019-02-04T02:04:09.426Z,39
2019-02-04T02:04:20.285Z,37
2019-02-04T02:04:31.232Z,35
2019-02-04T02:04:39.520Z,39
2019-02-04T02:04:50.374Z,40
2019-02-04T02:04:59.591Z,39
2019-02-04T02:05:09.641Z,38
2019-02-04T02:05:20.435Z,36
2019-02-04T02:05:40.570Z,35
2019-02-04T02:05:50.572Z,37
2019-02-04T02:06:00.623Z,39
2019-02-04T02:06:12.219Z,38
2019-02-04T02:06:20.642Z,40
2019-02-04T02:07:11.106Z,38
2019-02-04T02:07:30.911Z,40
2019-02-04T02:07:50.070Z,39
2019-02-04T02:08:00.261Z,38
2019-02-04T02:08:10.209Z,36
2019-02-04T02:08:20.205Z,38
2019-02-04T02:08:30.247Z,39
2019-02-04T02:09:00.355Z,40
2019-02-04T02:09:11.236Z,39
2019-02-04T02:09:22.952Z,41
2019-02-04T02:09:32.117Z,38
2019-02-04T02:10:00.557Z,39
2019-02-04T02:10:30.654Z,40
2019-02-04T02:10:41.536Z,41
2019-02-04T02:10:50.680Z,39
2019-02-04T02:11:11.643Z,38
2019-02-04T02:11:21.582Z,37
2019-02-04T02:11:31.690Z,38
2019-02-04T02:11:40.841Z,39
2019-02-04T02:12:12.157Z,38
2019-02-04T02:12:20.997Z,37
2019-02-04T02:12:30.996Z,36
2019-02-04T02:12:41.904Z,41
2019-02-04T02:12:51.891Z,39
2019-02-04T02:13:01.081Z,40
2019-02-04T02:13:21.120Z,39
2019-02-04T02:13:42.112Z,40
2019-02-04T02:13:52.096Z,38
2019-02-04T02:14:12.435Z,37
2019-02-04T02:14:22.182Z,39
2019-02-04T02:14:42.247Z,41
2019-02-04T02:15:11.519Z,39
2019-02-04T02:15:22.676Z,40
2019-02-04T02:15:31.564Z,43
2019-02-04T02:15:42.537Z,40
2019-02-04T02:15:52.480Z,37
2019-02-04T02:16:11.723Z,38
2019-02-04T02:16:22.829Z,42
2019-02-04T02:16:32.647Z,41
2019-02-04T02:16:42.668Z,42
2019-02-04T02:16:52.975Z,41
2019-02-04T02:17:13.652Z,42
2019-02-04T02:17:27.564Z,44
2019-02-04T02:17:32.863Z,40
2019-02-04T02:17:43.816Z,39
2019-02-04T02:17:52.822Z,42
2019-02-04T02:18:02.069Z,41
2019-02-04T02:18:32.170Z,40
2019-02-04T02:18:43.153Z,41
2019-02-04T02:18:53.924Z,42
2019-02-04T02:19:02.253Z,41
2019-02-04T02:19:22.264Z,40
2019-02-04T02:19:34.005Z,43
2019-02-04T02:19:44.127Z,41
2019-02-04T02:19:52.375Z,39
2019-02-04T02:20:02.436Z,41
2019-02-04T02:20:12.484Z,40
2019-02-04T02:20:22.451Z,39
2019-02-04T02:21:13.494Z,41
2019-02-04T02:21:23.508Z,43
2019-02-04T02:21:43.608Z,41
2019-02-04T02:22:03.683Z,42
2019-02-04T02:22:13.922Z,44
2019-02-04T02:22:22.854Z,43
2019-02-04T02:22:34.647Z,40
2019-02-04T02:22:42.934Z,39
2019-02-04T02:23:02.984Z,40
2019-02-04T02:23:34.004Z,39
2019-02-04T02:23:53.114Z,38
2019-02-04T02:24:24.083Z,42
2019-02-04T02:25:03.366Z,41
2019-02-04T02:25:43.498Z,42
2019-02-04T02:25:53.513Z,41
2019-02-04T02:26:03.567Z,40
2019-02-04T02:26:14.473Z,41
2019-02-04T02:26:24.452Z,42
2019-02-04T02:26:34.536Z,41
2019-02-04T02:26:45.361Z,38
2019-02-04T02:26:55.415Z,43
2019-02-04T02:27:05.484Z,41
2019-02-04T02:27:14.639Z,42
2019-02-04T02:27:23.761Z,41
2019-02-04T02:27:45.612Z,44
2019-02-04T02:27:53.882Z,43
2019-02-04T02:28:03.924Z,42
2019-02-04T02:28:15.488Z,41
2019-02-04T02:28:23.962Z,40
2019-02-04T02:28:34.037Z,41
2019-02-04T02:28:54.046Z,42
2019-02-04T02:29:04.118Z,41
2019-02-04T02:29:24.167Z,40
2019-02-04T02:29:35.044Z,43
2019-02-04T02:29:55.107Z,40
2019-02-04T02:30:25.234Z,39
2019-02-04T02:30:37.004Z,43
2019-02-04T02:30:44.466Z,42
2019-02-04T02:30:55.554Z,43
2019-02-04T02:31:05.388Z,42
2019-02-04T02:31:25.407Z,45
2019-02-04T02:31:37.168Z,43
2019-02-04T02:31:47.277Z,42
2019-02-04T02:32:05.596Z,41
2019-02-04T02:32:16.495Z,43
2019-02-04T02:32:24.733Z,42
2019-02-04T02:32:55.708Z,40
2019-02-04T02:33:05.748Z,43
2019-02-04T02:33:15.830Z,44
2019-02-04T02:33:25.791Z,43
2019-02-04T02:33:46.762Z,47
2019-02-04T02:33:55.852Z,46
2019-02-04T02:34:05.898Z,41
2019-02-04T02:34:16.000Z,39
2019-02-04T02:34:25.978Z,40
2019-02-04T02:34:36.037Z,43
2019-02-04T02:34:46.391Z,42
2019-02-04T02:34:55.248Z,41
2019-02-04T02:35:06.155Z,43
2019-02-04T02:35:16.172Z,42
2019-02-04T02:35:25.378Z,40
2019-02-04T02:35:37.102Z,41
2019-02-04T02:35:46.258Z,43
2019-02-04T02:36:15.522Z,41
2019-02-04T02:36:36.429Z,38
2019-02-04T02:36:46.487Z,43
2019-02-04T02:37:06.801Z,48
2019-02-04T02:37:16.559Z,45
2019-02-04T02:37:26.584Z,46
2019-02-04T02:37:36.589Z,44
2019-02-04T02:37:46.648Z,46
2019-02-04T02:37:56.674Z,45
2019-02-04T02:38:27.644Z,46
2019-02-04T02:38:36.806Z,43
2019-02-04T02:38:46.860Z,45
2019-02-04T02:39:07.757Z,46
2019-02-04T02:39:16.945Z,44
2019-02-04T02:39:27.115Z,43
2019-02-04T02:39:36.922Z,42
2019-02-04T02:39:47.870Z,43
2019-02-04T02:39:57.906Z,44
2019-02-04T02:40:17.112Z,42
2019-02-04T02:40:27.204Z,41
2019-02-04T02:40:38.867Z,44
2019-02-04T02:40:47.215Z,43
2019-02-04T02:41:17.361Z,45
2019-02-04T02:41:38.322Z,43
2019-02-04T02:41:48.250Z,42
2019-02-04T02:42:08.591Z,44
2019-02-04T02:42:18.372Z,42
2019-02-04T02:42:27.619Z,41
2019-02-04T02:42:36.674Z,43
2019-02-04T02:42:58.467Z,42
2019-02-04T02:43:17.741Z,41
2019-02-04T02:43:27.732Z,42
2019-02-04T02:43:36.834Z,41
2019-02-04T02:43:46.933Z,42
2019-02-04T02:43:56.946Z,40
2019-02-04T02:44:07.814Z,43
2019-02-04T02:44:18.116Z,42
2019-02-04T02:44:27.058Z,39
2019-02-04T02:44:47.095Z,41
2019-02-04T02:44:57.183Z,43
2019-02-04T02:46:29.221Z,41
2019-02-04T02:46:47.532Z,42
2019-02-04T02:47:17.645Z,41
2019-02-04T02:47:39.221Z,42
2019-02-04T02:47:58.562Z,43
2019-02-04T02:48:07.731Z,42
2019-02-04T02:48:17.831Z,41
2019-02-04T02:48:28.706Z,42
2019-02-04T02:48:48.835Z,41
2019-02-04T02:48:58.822Z,43
2019-02-04T02:49:08.769Z,42
2019-02-04T02:49:19.684Z,41
2019-02-04T02:49:29.833Z,44
2019-02-04T02:49:38.863Z,42
2019-02-04T02:49:48.954Z,41
2019-02-04T02:50:09.000Z,43
2019-02-04T02:50:18.218Z,44
2019-02-04T02:50:29.082Z,43
2019-02-04T02:50:39.106Z,42
2019-02-04T02:50:50.333Z,43
2019-02-04T02:51:10.831Z,41
2019-02-04T02:51:29.547Z,42
2019-02-04T02:51:50.124Z,44
2019-02-04T02:52:08.520Z,43
2019-02-04T02:52:18.588Z,42
2019-02-04T02:52:29.484Z,41
2019-02-04T02:52:38.581Z,42
2019-02-04T02:52:49.540Z,43
2019-02-04T02:52:58.714Z,42
2019-02-04T02:53:19.769Z,44
2019-02-04T02:53:29.658Z,45
2019-02-04T02:53:58.889Z,43
2019-02-04T02:54:09.773Z,46
2019-02-04T02:54:18.972Z,45
2019-02-04T02:54:38.976Z,43
2019-02-04T02:54:49.081Z,44
2019-02-04T02:55:19.170Z,45
2019-02-04T02:55:30.373Z,43
2019-02-04T02:55:50.153Z,42
2019-02-04T02:56:00.154Z,43
2019-02-04T02:56:10.149Z,42
2019-02-04T02:56:29.385Z,41
2019-02-04T02:56:40.584Z,43
2019-02-04T02:57:10.369Z,42
2019-02-04T02:57:21.284Z,43
2019-02-04T02:57:40.411Z,44
2019-02-04T02:57:50.643Z,45
2019-02-04T02:57:59.653Z,44
2019-02-04T02:58:09.670Z,43
2019-02-04T02:58:31.571Z,44
2019-02-04T02:58:40.674Z,43
2019-02-04T02:59:21.026Z,44
2019-02-04T02:59:30.842Z,42
2019-02-04T03:00:02.456Z,44
2019-02-04T03:01:00.202Z,43
2019-02-04T03:01:10.254Z,44
2019-02-04T03:01:32.031Z,43
2019-02-04T03:01:52.419Z,47
2019-02-04T03:02:02.951Z,45
2019-02-04T03:02:12.604Z,42
2019-02-04T03:02:21.574Z,44
2019-02-04T03:02:42.315Z,43
2019-02-04T03:03:02.317Z,42
2019-02-04T03:03:11.458Z,43
2019-02-04T03:03:20.641Z,42
2019-02-04T03:03:32.628Z,43
2019-02-04T03:03:51.612Z,42
2019-02-04T03:04:01.800Z,43
2019-02-04T03:04:11.690Z,45
2019-02-04T03:04:21.680Z,44
2019-02-04T03:04:30.857Z,42
2019-02-04T03:05:12.739Z,43
2019-02-04T03:05:23.141Z,41
2019-02-04T03:05:41.945Z,43
2019-02-04T03:05:51.930Z,44
2019-02-04T03:06:02.086Z,43
2019-02-04T03:06:12.039Z,44
2019-02-04T03:06:22.078Z,42
2019-02-04T03:06:51.276Z,41
2019-02-04T03:07:03.013Z,40
2019-02-04T03:07:31.471Z,43
2019-02-04T03:07:43.183Z,45
2019-02-04T03:07:52.282Z,44
2019-02-04T03:08:21.580Z,43
2019-02-04T03:08:33.494Z,42
2019-02-04T03:08:43.347Z,45
2019-02-04T03:08:53.344Z,44
2019-02-04T03:09:01.711Z,43
2019-02-04T03:09:13.736Z,42
2019-02-04T03:09:44.381Z,43
2019-02-04T03:09:54.182Z,44
2019-02-04T03:10:22.981Z,41
2019-02-04T03:10:32.844Z,42
2019-02-04T03:10:53.130Z,45
2019-02-04T03:11:33.018Z,44
2019-02-04T03:11:53.038Z,50
2019-02-04T03:12:04.023Z,48
2019-02-04T03:12:23.997Z,47
2019-02-04T03:12:34.383Z,46
2019-02-04T03:12:53.208Z,48
2019-02-04T03:13:24.196Z,46
2019-02-04T03:13:34.299Z,48
2019-02-04T03:13:53.426Z,46
2019-02-04T03:14:12.666Z,49
2019-02-04T03:14:23.537Z,48
2019-02-04T03:14:33.590Z,47
2019-02-04T03:14:53.979Z,49
2019-02-04T03:15:03.725Z,48
2019-02-04T03:15:13.687Z,47
2019-02-04T03:15:22.841Z,46
2019-02-04T03:15:33.838Z,47
2019-02-04T03:15:42.982Z,49
2019-02-04T03:15:53.857Z,48
2019-02-04T03:16:04.205Z,46
2019-02-04T03:16:13.081Z,47
2019-02-04T03:16:33.146Z,46
2019-02-04T03:16:44.038Z,45
2019-02-04T03:16:54.085Z,48
2019-02-04T03:17:04.064Z,46
2019-02-04T03:17:50.946Z,45
2019-02-04T03:17:53.863Z,44
2019-02-04T03:18:04.268Z,45
2019-02-04T03:18:14.272Z,48
2019-02-04T03:18:24.526Z,46
2019-02-04T03:18:34.449Z,45
2019-02-04T03:18:43.591Z,46
2019-02-04T03:19:03.601Z,45
2019-02-04T03:20:05.463Z,47
2019-02-04T03:20:14.735Z,46
2019-02-04T03:20:24.806Z,48
2019-02-04T03:20:34.708Z,46
2019-02-04T03:20:43.956Z,45
2019-02-04T03:21:39.675Z,47
2019-02-04T03:21:49.956Z,45
2019-02-04T03:21:59.845Z,46
2019-02-04T03:22:09.776Z,47
2019-02-04T03:22:39.033Z,46
2019-02-04T03:22:49.899Z,47
2019-02-04T03:23:10.077Z,46
2019-02-04T03:23:20.782Z,47
2019-02-04T03:23:30.062Z,45
2019-02-04T03:23:40.063Z,48